createdAt,value
2022-09-15T00:07:06.842Z,99320.13
2022-09-15T00:17:10.502Z,99284.53
2022-09-15T00:27:15.703Z,99251.34
2022-09-15T00:37:18.886Z,99271.66
2022-09-15T00:47:26.018Z,99310.31
2022-09-15T00:57:32.652Z,99352.59
2022-09-15T01:07:42.398Z,99358.22
2022-09-15T01:17:54.478Z,99365.34
2022-09-15T01:28:14.707Z,99376.13
2022-09-15T01:38:24.931Z,99385.19
2022-09-15T01:48:29.752Z,99393.25
2022-09-15T01:58:34.894Z,99398.66
2022-09-15T02:08:42.816Z,99377.19
2022-09-15T02:18:52.194Z,99378.19
2022-09-15T02:28:56.828Z,99363.06
2022-09-15T02:39:06.525Z,99371.03
2022-09-15T02:49:10.126Z,99374.06
2022-09-15T02:59:15.441Z,99366.47
2022-09-15T03:09:18.982Z,99367.50
2022-09-15T03:19:24.124Z,99357.34
2022-09-15T03:29:27.941Z,99358.75
2022-09-15T03:39:33.107Z,99367.66
2022-09-15T03:49:36.296Z,99369.44
2022-09-15T03:59:41.263Z,99362.59
2022-09-15T04:09:44.787Z,99365.19
2022-09-15T04:19:49.510Z,99364.12
2022-09-15T04:29:53.444Z,99383.09
2022-09-15T04:39:58.200Z,99373.06
2022-09-15T04:50:02.351Z,99390.03
2022-09-15T05:00:08.408Z,99388.66
2022-09-15T05:10:13.105Z,99410.69
2022-09-15T05:20:18.507Z,99400.94
2022-09-15T05:30:37.806Z,99411.78
2022-09-15T05:40:44.338Z,99412.66
2022-09-15T05:50:50.802Z,99435.00
2022-09-15T06:00:55.626Z,99461.91
2022-09-15T06:11:02.760Z,99455.19
2022-09-15T06:21:09.708Z,99452.13
2022-09-15T06:31:14.336Z,99447.09
2022-09-15T06:41:19.357Z,99469.88
2022-09-15T06:51:24.323Z,99478.56
2022-09-15T07:01:30.133Z,99473.44
2022-09-15T07:11:34.133Z,99493.28
2022-09-15T07:21:38.902Z,99496.41
2022-09-15T07:31:42.518Z,99517.59
2022-09-15T07:41:47.351Z,99517.19
2022-09-15T07:51:50.970Z,99490.13
2022-09-15T08:01:55.734Z,99512.25
2022-09-15T08:11:59.135Z,99516.75
2022-09-15T08:22:04.049Z,99518.78
2022-09-15T08:32:07.486Z,99508.16
2022-09-15T08:42:16.135Z,99507.41
2022-09-15T08:52:23.286Z,99488.13
2022-09-15T09:02:52.010Z,99466.50
2022-09-15T09:13:06.955Z,99470.47
2022-09-15T09:23:15.231Z,99442.53
2022-09-15T09:33:29.391Z,99433.69
2022-09-15T09:43:34.469Z,99424.41
2022-09-15T09:53:37.879Z,99427.91
2022-09-15T10:03:43.835Z,99413.91
2022-09-15T10:13:53.659Z,99406.63
2022-09-15T10:23:59.454Z,99379.19
2022-09-15T10:34:26.614Z,99354.28
2022-09-15T10:44:37.691Z,99335.75
2022-09-15T10:54:55.372Z,99348.97
2022-09-15T11:05:22.751Z,99358.25
2022-09-15T11:15:38.475Z,99355.97
2022-09-15T11:25:45.703Z,99346.50
2022-09-15T11:35:53.806Z,99341.22
2022-09-15T11:46:00.775Z,99345.84
2022-09-15T11:56:11.136Z,99333.53
2022-09-15T12:06:17.814Z,99291.25
2022-09-15T12:16:21.696Z,99285.28
2022-09-15T12:26:27.669Z,99294.78
2022-09-15T12:36:36.827Z,99292.03
2022-09-15T12:46:42.436Z,99313.78
2022-09-15T12:56:52.194Z,99335.94
2022-09-15T13:07:28.939Z,99333.75
2022-09-15T13:17:34.907Z,99306.31
2022-09-15T13:27:40.105Z,99333.66
2022-09-15T13:38:12.649Z,99276.16
2022-09-15T13:48:49.821Z,99285.16
2022-09-15T13:58:58.337Z,99275.69
2022-09-15T14:09:07.970Z,99294.84
2022-09-15T14:19:31.207Z,99321.56
2022-09-15T14:29:34.457Z,99317.00
2022-09-15T14:39:40.378Z,99303.75
2022-09-15T14:49:43.490Z,99305.28
2022-09-15T14:59:50.742Z,99293.97
2022-09-15T15:09:57.842Z,99331.13
2022-09-15T15:20:15.439Z,99337.06
2022-09-15T15:30:34.759Z,99304.53
2022-09-15T15:40:40.540Z,99262.41
2022-09-15T15:50:44.160Z,99291.87
2022-09-15T16:00:50.381Z,99268.38
2022-09-15T16:10:54.746Z,99286.34
2022-09-15T16:20:59.186Z,99249.56
2022-09-15T16:31:02.342Z,99277.66
2022-09-15T16:41:11.935Z,99285.00
2022-09-15T16:51:26.775Z,99282.94
2022-09-15T17:01:33.385Z,99273.81
2022-09-15T17:11:36.603Z,99295.69
2022-09-15T17:21:41.010Z,99289.88
2022-09-15T17:31:44.084Z,99289.75
2022-09-15T17:41:48.562Z,99270.06
2022-09-15T17:51:51.627Z,99272.81
2022-09-15T18:01:56.154Z,99279.69
2022-09-15T18:12:00.005Z,99275.09
2022-09-15T18:22:04.736Z,99275.16
2022-09-15T18:32:07.865Z,99270.63
2022-09-15T18:42:12.282Z,99273.03
2022-09-15T18:52:15.473Z,99287.59
2022-09-15T19:02:20.054Z,99276.44
2022-09-15T19:12:23.492Z,99296.06
2022-09-15T19:22:27.987Z,99310.38
2022-09-15T19:32:31.108Z,99335.09
2022-09-15T19:42:35.625Z,99354.00
2022-09-15T19:52:38.841Z,99338.72
2022-09-15T20:02:43.582Z,99337.25
2022-09-15T20:12:46.761Z,99352.94
2022-09-15T20:22:51.209Z,99349.41
2022-09-15T20:32:54.342Z,99345.59
2022-09-15T20:42:58.905Z,99364.00
2022-09-15T20:53:02.061Z,99362.75
2022-09-15T21:03:06.662Z,99377.59
2022-09-15T21:13:09.809Z,99373.28
2022-09-15T21:23:14.319Z,99397.94
2022-09-15T21:33:17.486Z,99404.97
2022-09-15T21:43:22.010Z,99416.50
2022-09-15T21:53:25.273Z,99406.63
2022-09-15T22:03:30.125Z,99433.69
2022-09-15T22:13:33.412Z,99462.75
2022-09-15T22:23:38.095Z,99501.66
2022-09-15T22:33:42.362Z,99508.91
2022-09-15T22:43:48.090Z,99512.28
2022-09-15T22:53:53.983Z,99517.59
2022-09-15T23:04:00.339Z,99532.66
2022-09-15T23:14:03.439Z,99549.94
2022-09-15T23:24:08.860Z,99553.81
2022-09-15T23:34:12.130Z,99561.81
2022-09-15T23:44:16.535Z,99566.03
2022-09-15T23:54:19.640Z,99586.38
